sensor_id;sensor_type;location;lat;lon;timestamp;pressure;altitude;pressure_sealevel;temperature;humidity
72285;BME280;60220;53.552;10.092;2023-10-31T00:01:43;99219.03;;;13.55;100.00
72285;BME280;60220;53.552;10.092;2023-10-31T00:04:09;99219.88;;;13.72;100.00
72285;BME280;60220;53.552;10.092;2023-10-31T00:06:36;99212.13;;;13.87;100.00
72285;BME280;60220;53.552;10.092;2023-10-31T00:09:05;99214.03;;;14.00;100.00
72285;BME280;60220;53.552;10.092;2023-10-31T00:11:32;99217.06;;;13.75;100.00
72285;BME280;60220;53.552;10.092;2023-10-31T00:14:01;99214.53;;;13.74;100.00
72285;BME280;60220;53.552;10.092;2023-10-31T00:16:27;99212.88;;;14.06;100.00
72285;BME280;60220;53.552;10.092;2023-10-31T00:18:58;99216.53;;;13.86;100.00
72285;BME280;60220;53.552;10.092;2023-10-31T00:21:24;99218.44;;;14.34;100.00
72285;BME280;60220;53.552;10.092;2023-10-31T00:23:53;99208.16;;;14.12;100.00
72285;BME280;60220;53.552;10.092;2023-10-31T00:26:20;99215.13;;;14.13;100.00
72285;BME280;60220;53.552;10.092;2023-10-31T00:28:47;99212.50;;;13.96;100.00
72285;BME280;60220;53.552;10.092;2023-10-31T00:31:13;99214.09;;;14.66;100.00
72285;BME280;60220;53.552;10.092;2023-10-31T00:33:40;99217.09;;;13.93;100.00
72285;BME280;60220;53.552;10.092;2023-10-31T00:36:08;99216.50;;;13.34;100.00
72285;BME280;60220;53.552;10.092;2023-10-31T00:38:35;99207.06;;;13.82;100.00
72285;BME280;60220;53.552;10.092;2023-10-31T00:41:02;99200.69;;;13.52;100.00
72285;BME280;60220;53.552;10.092;2023-10-31T00:43:29;99205.00;;;13.35;100.00
72285;BME280;60220;53.552;10.092;2023-10-31T00:45:56;99199.00;;;13.85;100.00
72285;BME280;60220;53.552;10.092;2023-10-31T00:48:22;99201.31;;;13.40;100.00
72285;BME280;60220;53.552;10.092;2023-10-31T00:50:51;99202.88;;;13.61;100.00
72285;BME280;60220;53.552;10.092;2023-10-31T00:53:22;99198.06;;;13.86;100.00
72285;BME280;60220;53.552;10.092;2023-10-31T00:55:48;99185.75;;;13.87;100.00
72285;BME280;60220;53.552;10.092;2023-10-31T00:58:15;99184.66;;;13.39;100.00
72285;BME280;60220;53.552;10.092;2023-10-31T01:00:41;99180.09;;;13.05;100.00
72285;BME280;60220;53.552;10.092;2023-10-31T01:03:10;99175.66;;;12.88;100.00
72285;BME280;60220;53.552;10.092;2023-10-31T01:05:37;99164.31;;;13.05;100.00
72285;BME280;60220;53.552;10.092;2023-10-31T01:08:06;99164.72;;;13.33;100.00
72285;BME280;60220;53.552;10.092;2023-10-31T01:10:34;99172.50;;;13.54;100.00
72285;BME280;60220;53.552;10.092;2023-10-31T01:13:01;99175.84;;;13.21;100.00
72285;BME280;60220;53.552;10.092;2023-10-31T01:15:27;99174.53;;;13.30;100.00
72285;BME280;60220;53.552;10.092;2023-10-31T01:17:56;99173.66;;;13.12;100.00
72285;BME280;60220;53.552;10.092;2023-10-31T01:20:23;99166.91;;;12.88;100.00
72285;BME280;60220;53.552;10.092;2023-10-31T01:22:50;99166.91;;;12.88;100.00
72285;BME280;60220;53.552;10.092;2023-10-31T01:25:16;99167.94;;;13.21;100.00
72285;BME280;60220;53.552;10.092;2023-10-31T01:27:46;99163.59;;;13.20;100.00
72285;BME280;60220;53.552;10.092;2023-10-31T01:30:13;99164.75;;;12.96;100.00
72285;BME280;60220;53.552;10.092;2023-10-31T01:32:40;99157.19;;;13.07;100.00
72285;BME280;60220;53.552;10.092;2023-10-31T01:35:07;99159.41;;;12.98;100.00
72285;BME280;60220;53.552;10.092;2023-10-31T01:37:34;99159.06;;;12.86;100.00
72285;BME280;60220;53.552;10.092;2023-10-31T01:40:00;99162.94;;;12.79;100.00
72285;BME280;60220;53.552;10.092;2023-10-31T01:42:27;99150.94;;;12.91;100.00
72285;BME280;60220;53.552;10.092;2023-10-31T01:44:55;99152.91;;;12.69;100.00
72285;BME280;60220;53.552;10.092;2023-10-31T01:47:22;99151.56;;;12.60;100.00
72285;BME280;60220;53.552;10.092;2023-10-31T01:49:49;99146.28;;;12.60;100.00
72285;BME280;60220;53.552;10.092;2023-10-31T01:52:19;99148.19;;;12.75;100.00
72285;BME280;60220;53.552;10.092;2023-10-31T01:54:45;99148.56;;;12.68;100.00
72285;BME280;60220;53.552;10.092;2023-10-31T01:57:13;99139.38;;;12.58;100.00
72285;BME280;60220;53.552;10.092;2023-10-31T01:59:41;99132.97;;;12.63;100.00
72285;BME280;60220;53.552;10.092;2023-10-31T02:02:10;99131.97;;;12.84;100.00
72285;BME280;60220;53.552;10.092;2023-10-31T02:04:39;99122.50;;;12.62;100.00
72285;BME280;60220;53.552;10.092;2023-10-31T02:07:06;99114.81;;;12.76;100.00
72285;BME280;60220;53.552;10.092;2023-10-31T02:09:32;99117.03;;;13.02;100.00
72285;BME280;60220;53.552;10.092;2023-10-31T02:11:59;99105.50;;;12.69;100.00
72285;BME280;60220;53.552;10.092;2023-10-31T02:14:26;99103.63;;;13.25;100.00
72285;BME280;60220;53.552;10.092;2023-10-31T02:16:54;99094.78;;;12.55;100.00
72285;BME280;60220;53.552;10.092;2023-10-31T02:19:22;99099.69;;;12.98;100.00
72285;BME280;60220;53.552;10.092;2023-10-31T02:21:50;99089.75;;;12.86;100.00
72285;BME280;60220;53.552;10.092;2023-10-31T02:24:19;99087.28;;;13.00;100.00
72285;BME280;60220;53.552;10.092;2023-10-31T02:26:46;99092.84;;;13.13;100.00
72285;BME280;60220;53.552;10.092;2023-10-31T02:29:13;99079.72;;;12.94;100.00
72285;BME280;60220;53.552;10.092;2023-10-31T02:31:39;99076.19;;;13.12;100.00
72285;BME280;60220;53.552;10.092;2023-10-31T02:34:06;99076.56;;;13.22;100.00
72285;BME280;60220;53.552;10.092;2023-10-31T02:36:35;99073.88;;;13.23;100.00
72285;BME280;60220;53.552;10.092;2023-10-31T02:39:03;99076.97;;;13.14;100.00
72285;BME280;60220;53.552;10.092;2023-10-31T02:41:30;99058.94;;;12.88;100.00
72285;BME280;60220;53.552;10.092;2023-10-31T02:43:56;99066.38;;;12.97;100.00
72285;BME280;60220;53.552;10.092;2023-10-31T02:46:23;99062.03;;;12.79;100.00
72285;BME280;60220;53.552;10.092;2023-10-31T02:48:50;99059.41;;;12.96;100.00
72285;BME280;60220;53.552;10.092;2023-10-31T02:51:19;99052.78;;;13.23;100.00
72285;BME280;60220;53.552;10.092;2023-10-31T02:53:45;99058.53;;;13.14;100.00
72285;BME280;60220;53.552;10.092;2023-10-31T02:56:13;99053.25;;;13.14;100.00
72285;BME280;60220;53.552;10.092;2023-10-31T02:58:40;99045.75;;;12.88;100.00
72285;BME280;60220;53.552;10.092;2023-10-31T03:01:07;99040.91;;;12.98;100.00
72285;BME280;60220;53.552;10.092;2023-10-31T03:03:33;99046.75;;;13.39;100.00
72285;BME280;60220;53.552;10.092;2023-10-31T03:06:00;99042.72;;;12.95;100.00
72285;BME280;60220;53.552;10.092;2023-10-31T03:08:27;99039.50;;;13.08;100.00
72285;BME280;60220;53.552;10.092;2023-10-31T03:10:53;99035.84;;;12.93;100.00
72285;BME280;60220;53.552;10.092;2023-10-31T03:13:21;99040.00;;;12.63;100.00
72285;BME280;60220;53.552;10.092;2023-10-31T03:15:51;99033.69;;;12.84;100.00
72285;BME280;60220;53.552;10.092;2023-10-31T03:18:17;99034.56;;;12.66;100.00
72285;BME280;60220;53.552;10.092;2023-10-31T03:20:45;99033.97;;;12.78;100.00
72285;BME280;60220;53.552;10.092;2023-10-31T03:23:14;99030.72;;;12.73;100.00
72285;BME280;60220;53.552;10.092;2023-10-31T03:25:43;99023.47;;;12.95;100.00
72285;BME280;60220;53.552;10.092;2023-10-31T03:28:19;99014.84;;;12.74;100.00
72285;BME280;60220;53.552;10.092;2023-10-31T03:30:50;99013.78;;;12.78;100.00
72285;BME280;60220;53.552;10.092;2023-10-31T03:33:16;99018.97;;;12.80;100.00
72285;BME280;60220;53.552;10.092;2023-10-31T03:35:44;99013.78;;;12.78;100.00
72285;BME280;60220;53.552;10.092;2023-10-31T03:38:11;99016.03;;;13.20;100.00
72285;BME280;60220;53.552;10.092;2023-10-31T03:40:40;99009.38;;;12.79;100.00
72285;BME280;60220;53.552;10.092;2023-10-31T03:43:06;99009.66;;;12.73;100.00
72285;BME280;60220;53.552;10.092;2023-10-31T03:45:33;99006.41;;;12.68;100.00
72285;BME280;60220;53.552;10.092;2023-10-31T03:48:04;99006.09;;;12.74;100.00
72285;BME280;60220;53.552;10.092;2023-10-31T03:50:31;99002.72;;;12.89;100.00
72285;BME280;60220;53.552;10.092;2023-10-31T03:52:57;99005.38;;;12.70;100.00
72285;BME280;60220;53.552;10.092;2023-10-31T03:55:26;99007.72;;;12.59;100.00
72285;BME280;60220;53.552;10.092;2023-10-31T03:57:53;99004.69;;;12.67;100.00
72285;BME280;60220;53.552;10.092;2023-10-31T04:00:22;99000.56;;;12.61;100.00
72285;BME280;60220;53.552;10.092;2023-10-31T04:02:48;99000.84;;;12.91;100.00
72285;BME280;60220;53.552;10.092;2023-10-31T04:05:16;98999.16;;;12.90;100.00
72285;BME280;60220;53.552;10.092;2023-10-31T04:07:46;99001.16;;;13.02;100.00
72285;BME280;60220;53.552;10.092;2023-10-31T04:10:13;98992.63;;;12.97;100.00
72285;BME280;60220;53.552;10.092;2023-10-31T04:12:40;98988.00;;;12.85;100.00
72285;BME280;60220;53.552;10.092;2023-10-31T04:15:08;98990.91;;;12.96;100.00
72285;BME280;60220;53.552;10.092;2023-10-31T04:17:35;98986.38;;;13.00;100.00
72285;BME280;60220;53.552;10.092;2023-10-31T04:20:02;98985.09;;;13.74;100.00
72285;BME280;60220;53.552;10.092;2023-10-31T04:22:30;98982.81;;;14.31;100.00
72285;BME280;60220;53.552;10.092;2023-10-31T04:24:59;98994.69;;;13.75;100.00
72285;BME280;60220;53.552;10.092;2023-10-31T04:27:26;98998.28;;;13.74;100.00
72285;BME280;60220;53.552;10.092;2023-10-31T04:29:52;98984.28;;;13.89;100.00
72285;BME280;60220;53.552;10.092;2023-10-31T04:32:19;98998.31;;;13.24;100.00
72285;BME280;60220;53.552;10.092;2023-10-31T04:34:45;98986.28;;;13.01;100.00
72285;BME280;60220;53.552;10.092;2023-10-31T04:37:14;98986.66;;;12.93;100.00
72285;BME280;60220;53.552;10.092;2023-10-31T04:39:42;98989.28;;;13.78;100.00
72285;BME280;60220;53.552;10.092;2023-10-31T04:42:09;98992.63;;;14.13;100.00
72285;BME280;60220;53.552;10.092;2023-10-31T04:44:38;98990.09;;;13.63;100.00
72285;BME280;60220;53.552;10.092;2023-10-31T04:47:05;98979.31;;;13.67;100.00
72285;BME280;60220;53.552;10.092;2023-10-31T04:49:34;98977.31;;;13.55;100.00
72285;BME280;60220;53.552;10.092;2023-10-31T04:52:01;98971.19;;;14.03;100.00
72285;BME280;60220;53.552;10.092;2023-10-31T04:54:28;98976.44;;;13.88;100.00
72285;BME280;60220;53.552;10.092;2023-10-31T04:56:55;98969.75;;;13.65;100.00
72285;BME280;60220;53.552;10.092;2023-10-31T04:59:22;98973.31;;;14.89;100.00
72285;BME280;60220;53.552;10.092;2023-10-31T05:01:49;98968.53;;;13.88;100.00
72285;BME280;60220;53.552;10.092;2023-10-31T05:04:18;98968.44;;;13.41;100.00
72285;BME280;60220;53.552;10.092;2023-10-31T05:06:47;98964.06;;;13.57;100.00
72285;BME280;60220;53.552;10.092;2023-10-31T05:09:14;98968.78;;;14.46;100.00
72285;BME280;60220;53.552;10.092;2023-10-31T05:11:41;98957.34;;;14.61;100.00
72285;BME280;60220;53.552;10.092;2023-10-31T05:14:09;98951.56;;;13.76;100.00
72285;BME280;60220;53.552;10.092;2023-10-31T05:16:40;98956.22;;;13.40;100.00
72285;BME280;60220;53.552;10.092;2023-10-31T05:19:10;98952.94;;;13.67;100.00
72285;BME280;60220;53.552;10.092;2023-10-31T05:21:39;98946.41;;;14.21;100.00
72285;BME280;60220;53.552;10.092;2023-10-31T05:24:08;98950.56;;;14.26;100.00
72285;BME280;60220;53.552;10.092;2023-10-31T05:26:39;98962.22;;;13.90;100.00
72285;BME280;60220;53.552;10.092;2023-10-31T05:29:06;98968.81;;;13.66;100.00
72285;BME280;60220;53.552;10.092;2023-10-31T05:31:36;98975.28;;;13.27;100.00
72285;BME280;60220;53.552;10.092;2023-10-31T05:34:03;98968.94;;;13.80;100.00
72285;BME280;60220;53.552;10.092;2023-10-31T05:36:32;98966.34;;;13.30;100.00
72285;BME280;60220;53.552;10.092;2023-10-31T05:39:01;98964.66;;;13.62;100.00
72285;BME280;60220;53.552;10.092;2023-10-31T05:41:30;98956.53;;;14.13;100.00
72285;BME280;60220;53.552;10.092;2023-10-31T05:43:57;98953.66;;;14.02;100.00
72285;BME280;60220;53.552;10.092;2023-10-31T05:46:23;98947.50;;;14.17;100.00
72285;BME280;60220;53.552;10.092;2023-10-31T05:48:53;98969.66;;;13.51;100.00
72285;BME280;60220;53.552;10.092;2023-10-31T05:51:20;98953.69;;;13.54;100.00
72285;BME280;60220;53.552;10.092;2023-10-31T05:53:48;98957.44;;;13.32;100.00
72285;BME280;60220;53.552;10.092;2023-10-31T05:56:16;98949.16;;;14.04;100.00
72285;BME280;60220;53.552;10.092;2023-10-31T05:58:44;98959.22;;;13.65;100.00
72285;BME280;60220;53.552;10.092;2023-10-31T06:01:11;98945.81;;;14.48;100.00
72285;BME280;60220;53.552;10.092;2023-10-31T06:03:41;98958.06;;;14.17;100.00
72285;BME280;60220;53.552;10.092;2023-10-31T06:06:09;98955.31;;;14.35;100.00
72285;BME280;60220;53.552;10.092;2023-10-31T06:08:36;98957.19;;;14.64;100.00
72285;BME280;60220;53.552;10.092;2023-10-31T06:11:03;98958.75;;;14.52;100.00
72285;BME280;60220;53.552;10.092;2023-10-31T06:13:30;98954.66;;;14.31;100.00
72285;BME280;60220;53.552;10.092;2023-10-31T06:15:57;98954.56;;;14.33;100.00
72285;BME280;60220;53.552;10.092;2023-10-31T06:18:24;98947.84;;;14.11;100.00
72285;BME280;60220;53.552;10.092;2023-10-31T06:20:50;98953.06;;;13.97;100.00
72285;BME280;60220;53.552;10.092;2023-10-31T06:23:18;98950.75;;;14.07;100.00
72285;BME280;60220;53.552;10.092;2023-10-31T06:25:45;98959.75;;;13.87;100.00
72285;BME280;60220;53.552;10.092;2023-10-31T06:28:15;98955.75;;;14.11;100.00
72285;BME280;60220;53.552;10.092;2023-10-31T06:30:42;98953.81;;;13.99;100.00
72285;BME280;60220;53.552;10.092;2023-10-31T06:33:09;98966.41;;;14.57;100.00
72285;BME280;60220;53.552;10.092;2023-10-31T06:35:36;98957.28;;;14.31;100.00
72285;BME280;60220;53.552;10.092;2023-10-31T06:38:02;98948.44;;;14.01;100.00
72285;BME280;60220;53.552;10.092;2023-10-31T06:40:30;98960.28;;;13.94;100.00
72285;BME280;60220;53.552;10.092;2023-10-31T06:42:58;98950.06;;;14.03;100.00
72285;BME280;60220;53.552;10.092;2023-10-31T06:45:28;98958.91;;;14.02;100.00
72285;BME280;60220;53.552;10.092;2023-10-31T06:47:54;98950.41;;;13.97;100.00
72285;BME280;60220;53.552;10.092;2023-10-31T06:50:21;98958.06;;;14.17;100.00
72285;BME280;60220;53.552;10.092;2023-10-31T06:52:48;98956.25;;;13.71;100.00
72285;BME280;60220;53.552;10.092;2023-10-31T06:55:15;98962.56;;;14.15;100.00
72285;BME280;60220;53.552;10.092;2023-10-31T06:57:43;98961.22;;;14.40;100.00
72285;BME280;60220;53.552;10.092;2023-10-31T07:00:12;98962.84;;;13.47;100.00
72285;BME280;60220;53.552;10.092;2023-10-31T07:02:39;98965.69;;;13.75;100.00
72285;BME280;60220;53.552;10.092;2023-10-31T07:05:06;98959.38;;;13.62;100.00
72285;BME280;60220;53.552;10.092;2023-10-31T07:07:33;98967.97;;;13.50;100.00
72285;BME280;60220;53.552;10.092;2023-10-31T07:10:00;98968.28;;;13.44;100.00
72285;BME280;60220;53.552;10.092;2023-10-31T07:12:27;98955.91;;;13.77;100.00
72285;BME280;60220;53.552;10.092;2023-10-31T07:14:55;98963.00;;;13.92;100.00
72285;BME280;60220;53.552;10.092;2023-10-31T07:17:26;98965.19;;;13.68;100.00
72285;BME280;60220;53.552;10.092;2023-10-31T07:19:52;98960.81;;;13.52;100.00
72285;BME280;60220;53.552;10.092;2023-10-31T07:22:19;98962.56;;;13.01;100.00
72285;BME280;60220;53.552;10.092;2023-10-31T07:24:47;98957.22;;;12.85;100.00
72285;BME280;60220;53.552;10.092;2023-10-31T07:27:16;98959.94;;;12.49;100.00
72285;BME280;60220;53.552;10.092;2023-10-31T07:29:46;98970.16;;;12.73;100.00
72285;BME280;60220;53.552;10.092;2023-10-31T07:32:14;98967.72;;;12.51;100.00
72285;BME280;60220;53.552;10.092;2023-10-31T07:34:43;98969.38;;;12.71;100.00
72285;BME280;60220;53.552;10.092;2023-10-31T07:37:09;98973.75;;;12.89;100.00
72285;BME280;60220;53.552;10.092;2023-10-31T07:39:38;98972.00;;;12.71;100.00
72285;BME280;60220;53.552;10.092;2023-10-31T07:42:05;98960.81;;;12.31;100.00
72285;BME280;60220;53.552;10.092;2023-10-31T07:44:34;98965.38;;;11.72;100.00
72285;BME280;60220;53.552;10.092;2023-10-31T07:47:01;98966.41;;;11.88;100.00
72285;BME280;60220;53.552;10.092;2023-10-31T07:49:29;98973.66;;;11.83;100.00
72285;BME280;60220;53.552;10.092;2023-10-31T07:51:56;98970.59;;;11.92;100.00
72285;BME280;60220;53.552;10.092;2023-10-31T07:54:22;98964.84;;;12.02;100.00
72285;BME280;60220;53.552;10.092;2023-10-31T07:56:51;98972.06;;;12.16;100.00
72285;BME280;60220;53.552;10.092;2023-10-31T07:59:18;98965.59;;;12.23;100.00
72285;BME280;60220;53.552;10.092;2023-10-31T08:01:45;98974.59;;;11.61;100.00
72285;BME280;60220;53.552;10.092;2023-10-31T08:04:13;98976.88;;;11.50;100.00
72285;BME280;60220;53.552;10.092;2023-10-31T08:06:43;98969.44;;;11.60;100.00
72285;BME280;60220;53.552;10.092;2023-10-31T08:09:10;98981.22;;;11.31;100.00
72285;BME280;60220;53.552;10.092;2023-10-31T08:11:37;98970.28;;;11.21;100.00
72285;BME280;60220;53.552;10.092;2023-10-31T08:14:03;98982.88;;;11.34;100.00
72285;BME280;60220;53.552;10.092;2023-10-31T08:16:30;98975.41;;;11.63;100.00
72285;BME280;60220;53.552;10.092;2023-10-31T08:18:59;98971.91;;;11.63;100.00
72285;BME280;60220;53.552;10.092;2023-10-31T08:21:28;98981.34;;;11.87;100.00
72285;BME280;60220;53.552;10.092;2023-10-31T08:24:03;98975.59;;;11.40;100.00
72285;BME280;60220;53.552;10.092;2023-10-31T08:26:30;98976.97;;;11.29;100.00
72285;BME280;60220;53.552;10.092;2023-10-31T08:28:56;98974.34;;;11.29;100.00
72285;BME280;60220;53.552;10.092;2023-10-31T08:31:23;98979.56;;;10.90;100.00
72285;BME280;60220;53.552;10.092;2023-10-31T08:33:50;98975.59;;;11.20;100.00
72285;BME280;60220;53.552;10.092;2023-10-31T08:36:17;98973.84;;;10.80;100.00
72285;BME280;60220;53.552;10.092;2023-10-31T08:38:43;98978.75;;;11.08;100.00
72285;BME280;60220;53.552;10.092;2023-10-31T08:41:11;98982.25;;;10.66;100.00
72285;BME280;60220;53.552;10.092;2023-10-31T08:43:44;98972.38;;;11.34;100.00
72285;BME280;60220;53.552;10.092;2023-10-31T08:46:10;98976.41;;;11.41;100.00
72285;BME280;60220;53.552;10.092;2023-10-31T08:48:40;98975.41;;;11.63;100.00
72285;BME280;60220;53.552;10.092;2023-10-31T08:51:06;98972.13;;;11.19;100.00
72285;BME280;60220;53.552;10.092;2023-10-31T08:53:33;98977.16;;;11.44;100.00
72285;BME280;60220;53.552;10.092;2023-10-31T08:56:00;98981.06;;;11.75;100.00
72285;BME280;60220;53.552;10.092;2023-10-31T08:58:28;98977.44;;;11.57;100.00
72285;BME280;60220;53.552;10.092;2023-10-31T09:00:54;98978.94;;;11.62;100.00
72285;BME280;60220;53.552;10.092;2023-10-31T09:03:21;98982.59;;;11.97;100.00
72285;BME280;60220;53.552;10.092;2023-10-31T09:05:48;98983.59;;;11.17;100.00
72285;BME280;60220;53.552;10.092;2023-10-31T09:08:14;98978.72;;;11.48;100.00
72285;BME280;60220;53.552;10.092;2023-10-31T09:10:41;98990.38;;;11.61;100.00
72285;BME280;60220;53.552;10.092;2023-10-31T09:13:14;98994.03;;;11.78;100.00
72285;BME280;60220;53.552;10.092;2023-10-31T09:15:42;98992.50;;;11.74;100.00
72285;BME280;60220;53.552;10.092;2023-10-31T09:18:10;99009.31;;;12.07;100.00
72285;BME280;60220;53.552;10.092;2023-10-31T09:20:36;99008.03;;;11.97;100.00
72285;BME280;60220;53.552;10.092;2023-10-31T09:23:03;99016.03;;;11.95;100.00
72285;BME280;60220;53.552;10.092;2023-10-31T09:25:30;99024.13;;;11.71;100.00
72285;BME280;60220;53.552;10.092;2023-10-31T09:27:59;99021.19;;;11.97;100.00
72285;BME280;60220;53.552;10.092;2023-10-31T09:30:26;99028.47;;;11.72;100.00
72285;BME280;60220;53.552;10.092;2023-10-31T09:32:54;99027.91;;;11.65;100.00
72285;BME280;60220;53.552;10.092;2023-10-31T09:35:20;99031.00;;;11.34;100.00
72285;BME280;60220;53.552;10.092;2023-10-31T09:37:47;99040.78;;;11.51;100.00
72285;BME280;60220;53.552;10.092;2023-10-31T09:40:15;99038.22;;;11.49;100.00
72285;BME280;60220;53.552;10.092;2023-10-31T09:42:41;99057.28;;;11.14;100.00
72285;BME280;60220;53.552;10.092;2023-10-31T09:45:09;99074.00;;;11.11;100.00
72285;BME280;60220;53.552;10.092;2023-10-31T09:47:36;99085.38;;;11.12;100.00
72285;BME280;60220;53.552;10.092;2023-10-31T09:50:05;99101.38;;;11.06;100.00
72285;BME280;60220;53.552;10.092;2023-10-31T09:52:32;99106.84;;;11.21;100.00
72285;BME280;60220;53.552;10.092;2023-10-31T09:55:02;99125.69;;;11.31;100.00
72285;BME280;60220;53.552;10.092;2023-10-31T10:00:18;99161.72;;;10.62;100.00
72285;BME280;60220;53.552;10.092;2023-10-31T10:02:45;99167.38;;;10.52;100.00
72285;BME280;60220;53.552;10.092;2023-10-31T10:05:14;99176.72;;;10.60;100.00
72285;BME280;60220;53.552;10.092;2023-10-31T10:07:45;99185.38;;;10.39;100.00
72285;BME280;60220;53.552;10.092;2023-10-31T10:10:13;99202.56;;;10.23;100.00
72285;BME280;60220;53.552;10.092;2023-10-31T10:12:41;99207.38;;;10.10;100.00
72285;BME280;60220;53.552;10.092;2023-10-31T10:15:09;99223.84;;;10.14;100.00
72285;BME280;60220;53.552;10.092;2023-10-31T10:17:48;99222.06;;;10.16;100.00
72285;BME280;60220;53.552;10.092;2023-10-31T10:20:16;99235.59;;;10.28;100.00
72285;BME280;60220;53.552;10.092;2023-10-31T10:22:44;99244.19;;;10.32;100.00
72285;BME280;60220;53.552;10.092;2023-10-31T10:25:12;99255.38;;;10.37;100.00
72285;BME280;60220;53.552;10.092;2023-10-31T10:27:44;99272.56;;;10.46;100.00
72285;BME280;60220;53.552;10.092;2023-10-31T10:30:14;99265.09;;;10.35;100.00
72285;BME280;60220;53.552;10.092;2023-10-31T10:32:42;99285.94;;;10.38;100.00
72285;BME280;60220;53.552;10.092;2023-10-31T10:35:12;99303.81;;;10.27;100.00
72285;BME280;60220;53.552;10.092;2023-10-31T10:37:46;99309.00;;;10.02;100.00
72285;BME280;60220;53.552;10.092;2023-10-31T10:40:20;99314.47;;;10.22;100.00
72285;BME280;60220;53.552;10.092;2023-10-31T10:42:48;99329.31;;;10.48;100.00
72285;BME280;60220;53.552;10.092;2023-10-31T10:45:23;99339.31;;;10.62;100.00
72285;BME280;60220;53.552;10.092;2023-10-31T10:47:51;99342.72;;;10.89;100.00
72285;BME280;60220;53.552;10.092;2023-10-31T10:50:20;99349.53;;;10.94;100.00
72285;BME280;60220;53.552;10.092;2023-10-31T10:53:00;99367.50;;;11.05;100.00
72285;BME280;60220;53.552;10.092;2023-10-31T10:55:37;99377.16;;;11.04;100.00
72285;BME280;60220;53.552;10.092;2023-10-31T10:58:10;99380.00;;;11.21;100.00
72285;BME280;60220;53.552;10.092;2023-10-31T11:00:39;99391.00;;;11.31;100.00
72285;BME280;60220;53.552;10.092;2023-10-31T11:03:07;99397.81;;;11.13;100.00
72285;BME280;60220;53.552;10.092;2023-10-31T11:05:36;99405.50;;;11.41;100.00
72285;BME280;60220;53.552;10.092;2023-10-31T11:08:05;99414.09;;;11.23;100.00
72285;BME280;60220;53.552;10.092;2023-10-31T11:10:33;99413.56;;;11.13;100.00
72285;BME280;60220;53.552;10.092;2023-10-31T11:13:02;99422.44;;;11.34;100.00
72285;BME280;60220;53.552;10.092;2023-10-31T11:15:29;99430.06;;;11.17;100.00
72285;BME280;60220;53.552;10.092;2023-10-31T11:17:57;99430.94;;;11.17;100.00
72285;BME280;60220;53.552;10.092;2023-10-31T11:20:24;99444.50;;;11.30;100.00
72285;BME280;60220;53.552;10.092;2023-10-31T11:22:55;99448.84;;;11.06;100.00
72285;BME280;60220;53.552;10.092;2023-10-31T11:25:24;99455.25;;;11.22;100.00
72285;BME280;60220;53.552;10.092;2023-10-31T11:27:51;99459.13;;;10.88;100.00
72285;BME280;60220;53.552;10.092;2023-10-31T11:30:22;99463.63;;;11.09;100.00
72285;BME280;60220;53.552;10.092;2023-10-31T11:32:54;99464.56;;;11.31;100.00
72285;BME280;60220;53.552;10.092;2023-10-31T11:35:22;99476.66;;;11.60;100.00
72285;BME280;60220;53.552;10.092;2023-10-31T11:37:49;99485.31;;;11.62;100.00
72285;BME280;60220;53.552;10.092;2023-10-31T11:40:20;99490.53;;;11.87;100.00
72285;BME280;60220;53.552;10.092;2023-10-31T11:42:50;99494.50;;;11.27;100.00
72285;BME280;60220;53.552;10.092;2023-10-31T11:45:32;99501.59;;;11.25;100.00
72285;BME280;60220;53.552;10.092;2023-10-31T11:47:59;99501.03;;;11.40;100.00
72285;BME280;60220;53.552;10.092;2023-10-31T11:50:26;99514.75;;;11.48;100.00
72285;BME280;60220;53.552;10.092;2023-10-31T11:53:00;99510.53;;;11.44;100.00
72285;BME280;60220;53.552;10.092;2023-10-31T11:55:28;99519.66;;;11.82;100.00
72285;BME280;60220;53.552;10.092;2023-10-31T11:57:59;99515.94;;;11.40;100.00
72285;BME280;60220;53.552;10.092;2023-10-31T12:00:25;99518.19;;;11.75;100.00
72285;BME280;60220;53.552;10.092;2023-10-31T12:02:59;99525.22;;;12.41;100.00
72285;BME280;60220;53.552;10.092;2023-10-31T12:05:25;99541.41;;;12.09;100.00
72285;BME280;60220;53.552;10.092;2023-10-31T12:07:53;99535.75;;;11.96;100.00
72285;BME280;60220;53.552;10.092;2023-10-31T12:10:23;99546.59;;;12.11;100.00
72285;BME280;60220;53.552;10.092;2023-10-31T12:12:51;99546.84;;;11.81;100.00
72285;BME280;60220;53.552;10.092;2023-10-31T12:15:19;99547.53;;;11.61;100.00
72285;BME280;60220;53.552;10.092;2023-10-31T12:17:48;99551.94;;;11.86;100.00
72285;BME280;60220;53.552;10.092;2023-10-31T12:20:15;99551.78;;;11.90;100.00
72285;BME280;60220;53.552;10.092;2023-10-31T12:22:44;99560.31;;;11.47;100.00
72285;BME280;60220;53.552;10.092;2023-10-31T12:25:11;99565.66;;;11.94;100.00
72285;BME280;60220;53.552;10.092;2023-10-31T12:27:46;99559.34;;;12.21;100.00
72285;BME280;60220;53.552;10.092;2023-10-31T12:30:19;99563.59;;;12.02;100.00
72285;BME280;60220;53.552;10.092;2023-10-31T12:32:53;99569.59;;;11.82;100.00
72285;BME280;60220;53.552;10.092;2023-10-31T12:35:22;99588.16;;;11.53;100.00
72285;BME280;60220;53.552;10.092;2023-10-31T12:37:50;99588.44;;;11.20;100.00
72285;BME280;60220;53.552;10.092;2023-10-31T12:40:17;99594.69;;;11.66;100.00
72285;BME280;60220;53.552;10.092;2023-10-31T12:42:46;99596.63;;;11.86;100.00
72285;BME280;60220;53.552;10.092;2023-10-31T12:45:13;99602.78;;;12.10;100.00
72285;BME280;60220;53.552;10.092;2023-10-31T12:47:41;99599.91;;;11.92;100.00